createdAt,value
2019-02-19T00:01:59.700Z,1.30
2019-02-19T00:05:06.577Z,1.30
2019-02-19T00:08:17.180Z,1.20
2019-02-19T00:11:24.091Z,1.20
2019-02-19T00:14:31.032Z,1.30
2019-02-19T00:17:38.001Z,1.40
2019-02-19T00:20:44.905Z,1.30
2019-02-19T00:23:51.844Z,1.40
2019-02-19T00:27:04.860Z,1.20
2019-02-19T00:30:11.763Z,1.10
2019-02-19T00:33:18.652Z,0.90
2019-02-19T00:36:25.615Z,0.80
2019-02-19T00:39:32.638Z,0.80
2019-02-19T00:42:39.676Z,0.70
2019-02-19T00:45:46.576Z,0.60
2019-02-19T00:48:53.476Z,0.60
2019-02-19T00:52:00.416Z,0.60
2019-02-19T00:55:07.799Z,0.70
2019-02-19T00:58:14.684Z,0.70
2019-02-19T01:01:21.645Z,0.50
2019-02-19T01:04:28.490Z,0.60
2019-02-19T01:07:35.458Z,0.50
2019-02-19T01:10:42.459Z,0.50
2019-02-19T01:13:49.479Z,0.70
2019-02-19T01:16:56.431Z,0.70
2019-02-19T01:20:03.515Z,0.80
2019-02-19T01:23:10.474Z,0.80
2019-02-19T01:26:22.086Z,0.80
2019-02-19T01:29:29.009Z,0.80
2019-02-19T01:32:35.883Z,0.80
2019-02-19T01:35:43.009Z,0.80
2019-02-19T01:38:49.850Z,0.80
2019-02-19T01:41:56.730Z,0.70
2019-02-19T01:45:09.038Z,0.80
2019-02-19T01:48:16.017Z,0.70
2019-02-19T01:51:22.959Z,0.70
2019-02-19T01:54:33.107Z,0.60
2019-02-19T01:57:40.011Z,0.60
2019-02-19T02:00:46.852Z,0.60
2019-02-19T02:03:53.699Z,0.60
2019-02-19T02:07:00.580Z,0.60
2019-02-19T02:10:07.868Z,0.60
2019-02-19T02:13:14.774Z,0.50
2019-02-19T02:16:21.638Z,0.50
2019-02-19T02:19:28.602Z,0.60
2019-02-19T02:22:39.654Z,0.60
2019-02-19T02:25:46.561Z,0.50
2019-02-19T02:28:53.402Z,0.40
2019-02-19T02:32:00.302Z,0.20
2019-02-19T02:35:07.180Z,0.20
2019-02-19T02:38:14.092Z,0.20
2019-02-19T02:41:21.002Z,0.20
2019-02-19T02:44:27.946Z,0.20
2019-02-19T02:47:34.889Z,0.30
2019-02-19T02:50:41.828Z,0.30
2019-02-19T02:53:48.724Z,0.20
2019-02-19T02:56:55.538Z,0.20
2019-02-19T03:00:02.471Z,0.20
2019-02-19T03:03:09.369Z,0.10
2019-02-19T03:06:30.656Z,0.10
2019-02-19T03:09:37.576Z,0.10
2019-02-19T03:12:44.575Z,0.10
2019-02-19T03:15:51.541Z,0.10
2019-02-19T03:18:58.517Z,0.20
2019-02-19T03:22:05.388Z,0.30
2019-02-19T03:25:12.330Z,0.30
2019-02-19T03:28:19.323Z,0.30
2019-02-19T03:31:26.243Z,0.20
2019-02-19T03:34:33.315Z,0.20
2019-02-19T03:37:40.207Z,0.20
2019-02-19T03:40:47.149Z,0.20
2019-02-19T03:43:54.002Z,0.20
2019-02-19T03:47:00.913Z,0.20
2019-02-19T03:50:26.888Z,0.20
2019-02-19T03:53:33.802Z,0.20
2019-02-19T03:56:40.751Z,0.10
2019-02-19T03:59:47.904Z,0.00
2019-02-19T04:02:54.724Z,0.00
2019-02-19T04:06:01.682Z,0.00
2019-02-19T04:09:08.586Z,0.10
2019-02-19T04:12:15.529Z,0.10
2019-02-19T04:15:22.458Z,0.10
2019-02-19T04:18:29.384Z,0.00
2019-02-19T04:21:36.251Z,0.00
2019-02-19T04:24:43.154Z,0.10
2019-02-19T04:27:53.085Z,0.00
2019-02-19T04:30:59.935Z,-0.10
2019-02-19T04:34:06.806Z,-0.10
2019-02-19T04:37:13.746Z,-0.10
2019-02-19T04:40:20.623Z,-0.10
2019-02-19T04:43:27.451Z,0.10
2019-02-19T04:46:34.342Z,0.20
2019-02-19T04:49:41.180Z,0.10
2019-02-19T04:52:48.108Z,0.10
2019-02-19T04:55:54.964Z,0.10
2019-02-19T04:59:01.910Z,0.20
2019-02-19T05:02:08.839Z,0.40
2019-02-19T05:05:15.838Z,0.40
2019-02-19T05:08:25.819Z,0.40
2019-02-19T05:11:33.076Z,0.30
2019-02-19T05:14:39.917Z,0.30
2019-02-19T05:17:46.787Z,0.20
2019-02-19T05:20:53.736Z,0.10
2019-02-19T05:24:19.681Z,0.00
2019-02-19T05:27:26.500Z,0.10
2019-02-19T05:30:33.674Z,0.00
2019-02-19T05:33:40.530Z,0.00
2019-02-19T05:36:47.482Z,0.10
2019-02-19T05:39:54.361Z,0.20
2019-02-19T05:43:01.606Z,0.20
2019-02-19T05:46:08.514Z,0.30
2019-02-19T05:49:15.491Z,0.40
2019-02-19T05:52:22.539Z,0.40
2019-02-19T05:55:29.378Z,0.30
2019-02-19T05:58:36.292Z,0.30
2019-02-19T06:01:43.230Z,0.50
2019-02-19T06:04:50.137Z,0.50
2019-02-19T06:08:00.644Z,0.60
2019-02-19T06:11:08.046Z,0.60
2019-02-19T06:14:15.152Z,0.50
2019-02-19T06:17:22.095Z,0.40
2019-02-19T06:20:37.806Z,0.40
2019-02-19T06:23:44.778Z,0.50
2019-02-19T06:26:51.861Z,0.60
2019-02-19T06:29:59.613Z,0.70
2019-02-19T06:33:07.011Z,0.70
2019-02-19T06:36:14.220Z,0.90
2019-02-19T06:39:21.478Z,1.10
2019-02-19T06:42:29.215Z,1.20
2019-02-19T06:45:36.183Z,1.10
2019-02-19T06:48:43.624Z,1.10
2019-02-19T06:51:50.908Z,1.00
2019-02-19T06:54:57.967Z,1.20
2019-02-19T06:58:05.367Z,1.40
2019-02-19T07:01:12.420Z,1.40
2019-02-19T07:04:29.336Z,1.70
2019-02-19T07:07:36.409Z,1.90
2019-02-19T07:10:43.558Z,2.00
2019-02-19T07:13:50.797Z,2.20
2019-02-19T07:16:57.833Z,2.30
2019-02-19T07:20:24.085Z,2.40
2019-02-19T07:23:31.375Z,2.40
2019-02-19T07:26:38.352Z,2.50
2019-02-19T07:29:47.821Z,2.50
2019-02-19T07:32:55.055Z,2.80
2019-02-19T07:36:02.230Z,2.90
2019-02-19T07:39:09.551Z,3.00
2019-02-19T07:42:16.607Z,3.10
2019-02-19T07:45:23.650Z,3.20
2019-02-19T07:48:30.747Z,3.40
2019-02-19T07:51:37.714Z,3.50
2019-02-19T07:54:44.739Z,3.60
2019-02-19T07:57:51.570Z,3.70
2019-02-19T08:00:58.759Z,3.90
2019-02-19T08:04:05.972Z,4.10
2019-02-19T08:07:12.929Z,4.30
2019-02-19T08:10:20.280Z,4.40
2019-02-19T08:13:27.430Z,4.60
2019-02-19T08:16:34.680Z,5.00
2019-02-19T08:19:41.995Z,5.10
2019-02-19T08:22:49.305Z,5.40
2019-02-19T08:25:56.456Z,5.50
2019-02-19T08:29:13.223Z,5.60
2019-02-19T08:32:12.297Z,5.80
2019-02-19T08:35:19.885Z,5.80
2019-02-19T08:38:45.959Z,5.80
2019-02-19T08:41:53.017Z,5.80
2019-02-19T08:45:00.370Z,5.80
2019-02-19T08:48:14.510Z,5.90
2019-02-19T08:51:21.760Z,5.90
2019-02-19T08:54:28.797Z,6.00
2019-02-19T08:57:35.750Z,6.00
2019-02-19T09:00:42.871Z,6.10
2019-02-19T09:03:50.007Z,6.10
2019-02-19T09:06:57.250Z,6.00
2019-02-19T09:10:05.398Z,6.10
2019-02-19T09:13:12.664Z,6.20
2019-02-19T09:16:19.843Z,6.20
2019-02-19T09:19:46.041Z,6.20
2019-02-19T09:22:53.230Z,6.20
2019-02-19T09:26:00.388Z,6.30
2019-02-19T09:29:07.693Z,6.40
2019-02-19T09:32:14.893Z,6.60
2019-02-19T09:35:22.515Z,6.70
2019-02-19T09:38:29.748Z,6.60
2019-02-19T09:41:36.969Z,6.60
2019-02-19T09:44:44.133Z,6.40
2019-02-19T09:48:00.774Z,6.50
2019-02-19T09:51:00.599Z,6.40
2019-02-19T09:54:07.945Z,6.50
2019-02-19T09:57:15.088Z,6.60
2019-02-19T10:00:22.370Z,6.80
2019-02-19T10:03:29.636Z,6.90
2019-02-19T10:06:37.059Z,6.90
2019-02-19T10:09:44.324Z,6.80
2019-02-19T10:12:51.553Z,6.60
2019-02-19T10:15:58.838Z,6.60
2019-02-19T10:19:06.118Z,6.90
2019-02-19T10:22:13.325Z,6.70
2019-02-19T10:25:20.515Z,6.60
2019-02-19T10:28:28.084Z,6.80
2019-02-19T10:31:38.798Z,6.90
2019-02-19T10:34:46.463Z,6.80
2019-02-19T10:37:53.662Z,7.10
2019-02-19T10:41:00.908Z,7.30
2019-02-19T10:44:08.099Z,7.50
2019-02-19T10:47:15.715Z,7.40
2019-02-19T10:50:34.992Z,7.40
2019-02-19T10:53:42.330Z,7.20
2019-02-19T10:56:49.790Z,7.30
2019-02-19T10:59:57.037Z,7.60
2019-02-19T11:03:04.095Z,7.60
2019-02-19T11:06:12.222Z,7.80
2019-02-19T11:09:19.216Z,8.00
2019-02-19T11:12:26.291Z,8.00
2019-02-19T11:15:33.801Z,7.90
2019-02-19T11:19:00.073Z,8.10
2019-02-19T11:22:07.194Z,8.00
2019-02-19T11:25:30.466Z,7.90
2019-02-19T11:28:37.695Z,8.00
2019-02-19T11:31:44.782Z,8.60
2019-02-19T11:34:51.880Z,9.20
2019-02-19T11:37:58.857Z,10.00
2019-02-19T11:41:06.100Z,10.30
2019-02-19T11:44:13.029Z,10.00
2019-02-19T11:47:26.412Z,9.90
2019-02-19T11:50:28.748Z,10.10
2019-02-19T11:53:35.810Z,10.10
2019-02-19T11:56:42.818Z,10.20
2019-02-19T11:59:49.835Z,10.50
2019-02-19T12:02:56.987Z,10.30
2019-02-19T12:06:04.029Z,10.20
2019-02-19T12:09:11.101Z,10.20
2019-02-19T12:12:18.260Z,10.10
2019-02-19T12:15:25.281Z,9.80
2019-02-19T12:18:51.335Z,9.70
2019-02-19T12:21:58.349Z,9.50
2019-02-19T12:25:05.818Z,9.30
2019-02-19T12:28:12.946Z,9.30
2019-02-19T12:31:20.067Z,9.30
2019-02-19T12:34:27.009Z,9.50
2019-02-19T12:37:34.177Z,9.50
2019-02-19T12:40:41.202Z,9.50
2019-02-19T12:43:48.261Z,9.50
2019-02-19T12:46:55.212Z,9.50
2019-02-19T12:50:02.366Z,9.40
2019-02-19T12:53:09.560Z,9.30
2019-02-19T12:56:16.854Z,9.30
2019-02-19T12:59:23.964Z,9.30
2019-02-19T13:02:31.188Z,9.40
2019-02-19T13:05:38.282Z,9.60
2019-02-19T13:08:45.415Z,9.80
2019-02-19T13:11:52.586Z,9.90
2019-02-19T13:14:59.905Z,9.70
2019-02-19T13:18:07.058Z,9.80
2019-02-19T13:21:14.222Z,9.70
2019-02-19T13:24:21.230Z,9.70
2019-02-19T13:27:28.531Z,9.60
2019-02-19T13:30:35.891Z,9.60
2019-02-19T13:33:42.993Z,9.40
2019-02-19T13:36:50.397Z,9.50
2019-02-19T13:39:57.581Z,9.60
2019-02-19T13:43:07.256Z,9.40
2019-02-19T13:46:14.609Z,9.40
2019-02-19T13:49:21.647Z,9.40
2019-02-19T13:52:43.506Z,9.40
2019-02-19T13:55:53.658Z,9.40
2019-02-19T13:59:00.787Z,9.50
2019-02-19T14:02:08.110Z,9.60
2019-02-19T14:05:15.384Z,9.60
2019-02-19T14:08:22.929Z,9.60
2019-02-19T14:11:30.302Z,9.60
2019-02-19T14:14:48.300Z,9.60
2019-02-19T14:18:16.470Z,9.60
2019-02-19T14:21:58.358Z,9.70
2019-02-19T14:25:25.157Z,9.70
2019-02-19T14:28:57.427Z,9.80
2019-02-19T14:32:32.569Z,9.70
2019-02-19T14:36:07.994Z,9.70
2019-02-19T14:39:43.274Z,9.60
2019-02-19T14:43:08.344Z,9.60
2019-02-19T14:46:33.106Z,9.60
2019-02-19T14:50:08.604Z,9.60
2019-02-19T14:53:35.024Z,9.50
2019-02-19T14:57:13.355Z,9.50
2019-02-19T15:00:38.490Z,9.40
2019-02-19T15:04:13.992Z,9.20
2019-02-19T15:07:40.264Z,9.20
2019-02-19T15:11:06.516Z,9.10
2019-02-19T15:14:31.730Z,9.10
2019-02-19T15:18:31.896Z,9.20
2019-02-19T15:22:07.384Z,9.10
2019-02-19T15:25:29.658Z,9.20
2019-02-19T15:29:11.429Z,9.10
2019-02-19T15:32:37.707Z,9.20
2019-02-19T15:36:04.320Z,9.10
2019-02-19T15:39:21.898Z,9.10
2019-02-19T15:43:03.214Z,9.10
2019-02-19T15:46:47.748Z,9.10
2019-02-19T15:50:13.844Z,9.10
2019-02-19T15:53:43.054Z,8.90
2019-02-19T15:57:00.868Z,8.90
2019-02-19T16:00:29.429Z,8.90
2019-02-19T16:03:58.629Z,8.80
2019-02-19T16:07:23.937Z,8.80
2019-02-19T16:10:43.541Z,8.80
2019-02-19T16:14:16.540Z,8.80
2019-02-19T16:17:43.385Z,8.70
2019-02-19T16:21:12.648Z,8.70
2019-02-19T16:24:39.191Z,8.70
2019-02-19T16:28:04.025Z,8.70
2019-02-19T16:31:33.612Z,8.60
2019-02-19T16:34:56.969Z,8.50
2019-02-19T16:38:21.768Z,8.30
2019-02-19T16:42:06.313Z,8.30
2019-02-19T16:49:12.129Z,8.00
2019-02-19T16:52:30.853Z,7.90
2019-02-19T16:56:12.330Z,7.80
2019-02-19T16:59:27.428Z,7.60
2019-02-19T17:03:02.915Z,7.50
2019-02-19T17:06:47.510Z,7.30
2019-02-19T17:10:02.612Z,7.30
2019-02-19T17:13:34.347Z,7.20
2019-02-19T17:16:59.396Z,7.10
2019-02-19T17:20:32.101Z,7.00
2019-02-19T17:23:44.394Z,7.00
2019-02-19T17:27:05.238Z,7.00
2019-02-19T17:30:33.373Z,7.00
2019-02-19T17:33:57.965Z,7.00
2019-02-19T17:37:50.097Z,7.00
2019-02-19T17:41:14.666Z,7.00
2019-02-19T17:44:29.255Z,7.10
2019-02-19T17:47:58.301Z,7.20
2019-02-19T17:51:27.263Z,7.00
2019-02-19T17:54:43.288Z,6.80
2019-02-19T17:58:09.391Z,6.80
2019-02-19T18:01:38.552Z,6.90
2019-02-19T18:05:07.603Z,6.80
2019-02-19T18:08:39.375Z,7.00
2019-02-19T18:11:55.554Z,6.90
2019-02-19T18:15:21.075Z,7.10
2019-02-19T18:18:37.627Z,7.10
2019-02-19T18:21:44.581Z,7.20
2019-02-19T18:24:52.200Z,7.10
2019-02-19T18:27:59.266Z,7.20
2019-02-19T18:31:06.671Z,7.20
2019-02-19T18:34:13.870Z,7.10
2019-02-19T18:37:21.075Z,7.00
2019-02-19T18:40:28.563Z,7.00
2019-02-19T18:43:35.713Z,6.90
2019-02-19T18:46:42.989Z,7.00
2019-02-19T18:49:50.108Z,7.00
2019-02-19T18:52:57.326Z,7.00
2019-02-19T18:56:04.665Z,7.00
2019-02-19T18:59:11.911Z,7.00
2019-02-19T19:02:19.209Z,7.00
2019-02-19T19:05:26.441Z,7.00
2019-02-19T19:08:33.680Z,7.00
2019-02-19T19:11:42.051Z,7.00
2019-02-19T19:14:49.526Z,7.10
2019-02-19T19:17:57.083Z,7.10
2019-02-19T19:21:07.895Z,7.10
2019-02-19T19:24:13.081Z,7.10
2019-02-19T19:27:20.348Z,7.10
2019-02-19T19:30:27.700Z,7.20
2019-02-19T19:33:34.846Z,7.20
2019-02-19T19:36:42.109Z,7.20
2019-02-19T19:39:49.508Z,7.20
2019-02-19T19:43:00.137Z,7.10
2019-02-19T19:46:16.750Z,7.10
2019-02-19T19:49:24.145Z,7.00
2019-02-19T19:52:31.756Z,7.10
2019-02-19T19:55:39.107Z,7.10
2019-02-19T19:58:47.953Z,7.10
2019-02-19T20:01:58.368Z,7.00
2019-02-19T20:05:06.161Z,7.00
2019-02-19T20:08:13.605Z,7.00
2019-02-19T20:11:26.984Z,7.00
2019-02-19T20:14:34.315Z,7.00
2019-02-19T20:17:50.824Z,6.90
2019-02-19T20:20:58.084Z,6.80
2019-02-19T20:24:05.526Z,6.80
2019-02-19T20:27:13.123Z,6.60
2019-02-19T20:30:20.674Z,6.50
2019-02-19T20:33:28.190Z,6.50
2019-02-19T20:36:35.401Z,6.40
2019-02-19T20:39:42.720Z,6.40
2019-02-19T20:42:50.057Z,6.40
2019-02-19T20:45:57.240Z,6.40
2019-02-19T20:49:04.573Z,6.40
2019-02-19T20:52:11.757Z,6.50
2019-02-19T20:55:18.936Z,6.50
2019-02-19T20:58:26.440Z,6.50
2019-02-19T21:01:33.839Z,6.40
2019-02-19T21:04:41.417Z,6.50
2019-02-19T21:07:48.537Z,6.50
2019-02-19T21:10:55.909Z,6.50
2019-02-19T21:14:03.299Z,6.40
2019-02-19T21:17:10.555Z,6.40
2019-02-19T21:20:17.971Z,6.40
2019-02-19T21:23:25.111Z,6.30
2019-02-19T21:26:32.422Z,6.20
2019-02-19T21:29:39.654Z,6.00
2019-02-19T21:32:46.824Z,6.10
2019-02-19T21:35:57.862Z,6.20
2019-02-19T21:39:04.069Z,6.10
2019-02-19T21:42:11.162Z,6.20
2019-02-19T21:45:18.319Z,6.10
2019-02-19T21:48:25.499Z,6.10
2019-02-19T21:51:32.792Z,6.10
2019-02-19T21:54:40.166Z,6.10
2019-02-19T21:57:47.102Z,6.00
2019-02-19T22:01:01.389Z,5.90
2019-02-19T22:04:08.357Z,6.00
2019-02-19T22:07:15.353Z,6.00
2019-02-19T22:10:22.385Z,5.90
2019-02-19T22:13:30.001Z,5.90
2019-02-19T22:16:55.964Z,5.90
2019-02-19T22:20:03.645Z,5.80
2019-02-19T22:23:10.643Z,6.10
2019-02-19T22:26:17.576Z,6.10
2019-02-19T22:29:24.476Z,6.00
2019-02-19T22:32:31.413Z,6.00
2019-02-19T22:35:38.292Z,6.00
2019-02-19T22:38:45.820Z,5.90
2019-02-19T22:41:55.901Z,5.80
2019-02-19T22:45:03.051Z,5.80
2019-02-19T22:48:29.217Z,5.80
2019-02-19T22:51:55.843Z,5.70
2019-02-19T22:55:30.832Z,5.60
2019-02-19T22:58:38.131Z,5.50
2019-02-19T23:01:55.016Z,5.30
2019-02-19T23:05:02.670Z,5.20
2019-02-19T23:08:17.820Z,5.20
2019-02-19T23:11:25.028Z,5.10
2019-02-19T23:14:32.657Z,5.10
2019-02-19T23:17:39.808Z,4.90
2019-02-19T23:20:47.239Z,4.90
2019-02-19T23:23:54.508Z,4.80
2019-02-19T23:27:01.663Z,4.80
2019-02-19T23:30:08.791Z,4.80
2019-02-19T23:33:16.293Z,4.70
2019-02-19T23:36:45.426Z,4.70
2019-02-19T23:39:52.773Z,4.60
2019-02-19T23:43:00.120Z,4.50
2019-02-19T23:46:07.188Z,4.40
2019-02-19T23:49:14.255Z,4.30
2019-02-19T23:52:30.195Z,4.20
2019-02-19T23:55:30.218Z,4.20
2019-02-19T23:58:37.436Z,4.00
